sensor_id;sensor_type;location;lat;lon;timestamp;pressure;altitude;pressure_sealevel;temperature;humidity
55010;BME280;40903;51.638;7.528;2022-12-24T00:01:02;99937.88;;;10.13;100.00
55010;BME280;40903;51.638;7.528;2022-12-24T00:03:28;99935.97;;;10.13;100.00
55010;BME280;40903;51.638;7.528;2022-12-24T00:05:53;99951.88;;;10.20;100.00
55010;BME280;40903;51.638;7.528;2022-12-24T00:08:19;99956.34;;;10.16;100.00
55010;BME280;40903;51.638;7.528;2022-12-24T00:10:48;99964.59;;;10.11;100.00
55010;BME280;40903;51.638;7.528;2022-12-24T00:13:14;99976.31;;;10.11;100.00
55010;BME280;40903;51.638;7.528;2022-12-24T00:15:39;99973.91;;;10.10;100.00
55010;BME280;40903;51.638;7.528;2022-12-24T00:18:04;99987.34;;;10.06;100.00
55010;BME280;40903;51.638;7.528;2022-12-24T00:20:30;99989.84;;;10.03;100.00
55010;BME280;40903;51.638;7.528;2022-12-24T00:22:55;99990.44;;;10.00;100.00
55010;BME280;40903;51.638;7.528;2022-12-24T00:25:20;100001.88;;;10.02;100.00
55010;BME280;40903;51.638;7.528;2022-12-24T00:27:46;100005.16;;;9.99;100.00
55010;BME280;40903;51.638;7.528;2022-12-24T00:30:11;100007.69;;;9.95;100.00
55010;BME280;40903;51.638;7.528;2022-12-24T00:32:36;100012.31;;;9.95;100.00
55010;BME280;40903;51.638;7.528;2022-12-24T00:35:03;100005.25;;;9.94;100.00
55010;BME280;40903;51.638;7.528;2022-12-24T00:37:28;100018.19;;;10.02;100.00
55010;BME280;40903;51.638;7.528;2022-12-24T00:39:54;100019.00;;;10.02;100.00
55010;BME280;40903;51.638;7.528;2022-12-24T00:42:19;100026.97;;;9.99;100.00
55010;BME280;40903;51.638;7.528;2022-12-24T00:44:45;100016.28;;;10.02;100.00
55010;BME280;40903;51.638;7.528;2022-12-24T00:47:10;100016.34;;;9.97;100.00
55010;BME280;40903;51.638;7.528;2022-12-24T00:49:36;100018.06;;;9.93;100.00
55010;BME280;40903;51.638;7.528;2022-12-24T00:52:01;100017.25;;;9.93;100.00
55010;BME280;40903;51.638;7.528;2022-12-24T00:54:27;100025.94;;;9.95;100.00
55010;BME280;40903;51.638;7.528;2022-12-24T00:56:52;100029.16;;;9.97;100.00
55010;BME280;40903;51.638;7.528;2022-12-24T00:59:18;100034.91;;;9.95;100.00
55010;BME280;40903;51.638;7.528;2022-12-24T01:01:43;100040.66;;;9.94;100.00
55010;BME280;40903;51.638;7.528;2022-12-24T01:04:11;100042.59;;;9.93;100.00
55010;BME280;40903;51.638;7.528;2022-12-24T01:06:55;100043.88;;;9.96;100.00
55010;BME280;40903;51.638;7.528;2022-12-24T01:09:21;100052.88;;;9.96;100.00
55010;BME280;40903;51.638;7.528;2022-12-24T01:11:46;100053.00;;;10.05;100.00
55010;BME280;40903;51.638;7.528;2022-12-24T01:14:12;100057.34;;;10.06;100.00
55010;BME280;40903;51.638;7.528;2022-12-24T01:16:37;100048.34;;;10.05;100.00
55010;BME280;40903;51.638;7.528;2022-12-24T01:19:02;100054.41;;;10.02;100.00
55010;BME280;40903;51.638;7.528;2022-12-24T01:21:28;100060.66;;;10.03;100.00
55010;BME280;40903;51.638;7.528;2022-12-24T01:23:53;100071.56;;;10.03;100.00
55010;BME280;40903;51.638;7.528;2022-12-24T01:26:18;100078.63;;;10.04;100.00
55010;BME280;40903;51.638;7.528;2022-12-24T01:28:44;100078.69;;;9.99;100.00
55010;BME280;40903;51.638;7.528;2022-12-24T01:31:14;100083.03;;;10.00;100.00
55010;BME280;40903;51.638;7.528;2022-12-24T01:33:41;100082.00;;;9.96;100.00
55010;BME280;40903;51.638;7.528;2022-12-24T01:36:06;100091.75;;;10.02;100.00
55010;BME280;40903;51.638;7.528;2022-12-24T01:38:32;100101.28;;;9.99;100.00
55010;BME280;40903;51.638;7.528;2022-12-24T01:40:57;100101.06;;;9.96;100.00
55010;BME280;40903;51.638;7.528;2022-12-24T01:43:41;100108.44;;;9.95;100.00
55010;BME280;40903;51.638;7.528;2022-12-24T01:46:13;100104.00;;;9.86;100.00
55010;BME280;40903;51.638;7.528;2022-12-24T01:48:46;100103.28;;;9.80;100.00
55010;BME280;40903;51.638;7.528;2022-12-24T01:51:16;100110.22;;;9.73;100.00
55010;BME280;40903;51.638;7.528;2022-12-24T01:53:48;100111.63;;;9.70;100.00
55010;BME280;40903;51.638;7.528;2022-12-24T01:56:17;100129.06;;;9.69;100.00
55010;BME280;40903;51.638;7.528;2022-12-24T01:58:47;100120.38;;;9.68;100.00
55010;BME280;40903;51.638;7.528;2022-12-24T02:01:16;100122.22;;;9.72;100.00
55010;BME280;40903;51.638;7.528;2022-12-24T02:03:42;100115.34;;;9.74;100.00
55010;BME280;40903;51.638;7.528;2022-12-24T02:06:09;100124.34;;;9.75;100.00
55010;BME280;40903;51.638;7.528;2022-12-24T02:08:39;100138.44;;;9.77;100.00
55010;BME280;40903;51.638;7.528;2022-12-24T02:11:13;100129.19;;;9.78;100.00
55010;BME280;40903;51.638;7.528;2022-12-24T02:13:39;100136.47;;;9.82;100.00
55010;BME280;40903;51.638;7.528;2022-12-24T02:16:15;100143.72;;;9.87;100.00
55010;BME280;40903;51.638;7.528;2022-12-24T02:18:55;100135.13;;;9.80;100.00
55010;BME280;40903;51.638;7.528;2022-12-24T02:22:50;100147.56;;;9.86;100.00
55010;BME280;40903;51.638;7.528;2022-12-24T02:27:32;100151.91;;;9.87;100.00
55010;BME280;40903;51.638;7.528;2022-12-24T02:30:53;100159.09;;;9.96;100.00
55010;BME280;40903;51.638;7.528;2022-12-24T02:36:00;100165.94;;;9.94;100.00
55010;BME280;40903;51.638;7.528;2022-12-24T02:38:47;100181.25;;;9.90;100.00
55010;BME280;40903;51.638;7.528;2022-12-24T02:41:21;100182.38;;;9.89;100.00
55010;BME280;40903;51.638;7.528;2022-12-24T02:43:49;100190.75;;;9.92;100.00
55010;BME280;40903;51.638;7.528;2022-12-24T02:46:23;100195.88;;;9.94;100.00
55010;BME280;40903;51.638;7.528;2022-12-24T02:48:50;100196.38;;;9.96;100.00
55010;BME280;40903;51.638;7.528;2022-12-24T02:51:21;100200.22;;;9.95;100.00
55010;BME280;40903;51.638;7.528;2022-12-24T02:53:47;100208.72;;;9.93;100.00
55010;BME280;40903;51.638;7.528;2022-12-24T03:01:43;100212.53;;;9.92;100.00
55010;BME280;40903;51.638;7.528;2022-12-24T03:04:22;100214.34;;;9.97;100.00
55010;BME280;40903;51.638;7.528;2022-12-24T03:07:46;100218.66;;;10.03;100.00
55010;BME280;40903;51.638;7.528;2022-12-24T03:10:19;100219.44;;;10.03;100.00
55010;BME280;40903;51.638;7.528;2022-12-24T03:12:49;100217.03;;;10.02;100.00
55010;BME280;40903;51.638;7.528;2022-12-24T03:15:18;100223.84;;;9.99;100.00
55010;BME280;40903;51.638;7.528;2022-12-24T03:17:46;100211.34;;;9.98;100.00
55010;BME280;40903;51.638;7.528;2022-12-24T03:20:18;100215.03;;;9.89;100.00
55010;BME280;40903;51.638;7.528;2022-12-24T03:22:45;100216.94;;;9.88;100.00
55010;BME280;40903;51.638;7.528;2022-12-24T03:25:11;100219.53;;;9.80;100.00
55010;BME280;40903;51.638;7.528;2022-12-24T03:27:37;100221.25;;;9.76;100.00
55010;BME280;40903;51.638;7.528;2022-12-24T03:30:07;100223.59;;;9.82;100.00
55010;BME280;40903;51.638;7.528;2022-12-24T03:32:33;100223.38;;;9.79;100.00
55010;BME280;40903;51.638;7.528;2022-12-24T03:34:58;100228.31;;;9.77;100.00
55010;BME280;40903;51.638;7.528;2022-12-24T03:37:24;100233.63;;;9.68;100.00
55010;BME280;40903;51.638;7.528;2022-12-24T03:39:50;100231.41;;;9.70;100.00
55010;BME280;40903;51.638;7.528;2022-12-24T03:42:15;100248.38;;;9.81;100.00
55010;BME280;40903;51.638;7.528;2022-12-24T03:44:41;100241.91;;;9.77;100.00
55010;BME280;40903;51.638;7.528;2022-12-24T03:47:06;100244.63;;;9.77;100.00
55010;BME280;40903;51.638;7.528;2022-12-24T03:49:31;100246.63;;;9.71;100.00
55010;BME280;40903;51.638;7.528;2022-12-24T03:51:57;100252.16;;;9.67;100.00
55010;BME280;40903;51.638;7.528;2022-12-24T03:54:22;100253.19;;;9.70;100.00
55010;BME280;40903;51.638;7.528;2022-12-24T03:56:47;100258.41;;;9.67;100.00
55010;BME280;40903;51.638;7.528;2022-12-24T03:59:13;100250.16;;;9.72;100.00
55010;BME280;40903;51.638;7.528;2022-12-24T04:01:38;100256.50;;;9.68;100.00
55010;BME280;40903;51.638;7.528;2022-12-24T04:04:04;100254.06;;;9.66;100.00
55010;BME280;40903;51.638;7.528;2022-12-24T04:06:29;100259.81;;;9.65;100.00
55010;BME280;40903;51.638;7.528;2022-12-24T04:08:55;100258.63;;;9.70;100.00
55010;BME280;40903;51.638;7.528;2022-12-24T04:11:20;100259.00;;;9.64;100.00
55010;BME280;40903;51.638;7.528;2022-12-24T04:13:45;100265.25;;;9.65;100.00
55010;BME280;40903;51.638;7.528;2022-12-24T04:16:14;100261.66;;;9.69;100.00
55010;BME280;40903;51.638;7.528;2022-12-24T04:18:40;100257.75;;;9.75;100.00
55010;BME280;40903;51.638;7.528;2022-12-24T04:21:07;100253.03;;;9.80;100.00
55010;BME280;40903;51.638;7.528;2022-12-24T04:23:35;100263.19;;;9.75;100.00
55010;BME280;40903;51.638;7.528;2022-12-24T04:26:02;100273.19;;;9.79;100.00
55010;BME280;40903;51.638;7.528;2022-12-24T04:28:29;100273.03;;;9.89;100.00
55010;BME280;40903;51.638;7.528;2022-12-24T04:31:03;100273.09;;;9.84;100.00
55010;BME280;40903;51.638;7.528;2022-12-24T04:33:30;100279.38;;;9.85;100.00
55010;BME280;40903;51.638;7.528;2022-12-24T04:35:59;100274.72;;;9.85;100.00
55010;BME280;40903;51.638;7.528;2022-12-24T04:38:25;100280.03;;;9.95;100.00
55010;BME280;40903;51.638;7.528;2022-12-24T04:41:10;100273.03;;;9.89;100.00
55010;BME280;40903;51.638;7.528;2022-12-24T04:43:38;100280.69;;;9.87;100.00
55010;BME280;40903;51.638;7.528;2022-12-24T04:46:24;100275.84;;;9.84;100.00
55010;BME280;40903;51.638;7.528;2022-12-24T04:48:51;100285.34;;;9.87;100.00
55010;BME280;40903;51.638;7.528;2022-12-24T04:51:17;100286.63;;;9.89;100.00
55010;BME280;40903;51.638;7.528;2022-12-24T04:53:43;100295.13;;;9.88;100.00
55010;BME280;40903;51.638;7.528;2022-12-24T04:56:20;100301.00;;;9.95;100.00
55010;BME280;40903;51.638;7.528;2022-12-24T04:58:47;100298.56;;;9.93;100.00
55010;BME280;40903;51.638;7.528;2022-12-24T05:01:16;100299.69;;;9.92;100.00
55010;BME280;40903;51.638;7.528;2022-12-24T05:03:42;100296.38;;;9.95;100.00
55010;BME280;40903;51.638;7.528;2022-12-24T05:06:10;100296.38;;;9.95;100.00
55010;BME280;40903;51.638;7.528;2022-12-24T05:08:36;100302.69;;;9.91;100.00
55010;BME280;40903;51.638;7.528;2022-12-24T05:11:03;100304.03;;;9.93;100.00
55010;BME280;40903;51.638;7.528;2022-12-24T05:13:29;100296.41;;;9.90;100.00
55010;BME280;40903;51.638;7.528;2022-12-24T05:15:55;100305.94;;;9.93;100.00
55010;BME280;40903;51.638;7.528;2022-12-24T05:18:21;100311.81;;;10.00;100.00
55010;BME280;40903;51.638;7.528;2022-12-24T05:20:47;100305.28;;;10.01;100.00
55010;BME280;40903;51.638;7.528;2022-12-24T05:23:23;100315.72;;;9.94;100.00
55010;BME280;40903;51.638;7.528;2022-12-24T05:26:25;100314.59;;;9.95;100.00
55010;BME280;40903;51.638;7.528;2022-12-24T05:28:54;100321.56;;;10.06;100.00
55010;BME280;40903;51.638;7.528;2022-12-24T05:31:21;100320.00;;;10.00;100.00
55010;BME280;40903;51.638;7.528;2022-12-24T05:33:47;100322.72;;;10.00;100.00
55010;BME280;40903;51.638;7.528;2022-12-24T05:36:13;100325.44;;;10.00;100.00
55010;BME280;40903;51.638;7.528;2022-12-24T05:38:39;100324.88;;;10.03;100.00
55010;BME280;40903;51.638;7.528;2022-12-24T05:41:05;100318.00;;;10.05;100.00
55010;BME280;40903;51.638;7.528;2022-12-24T05:43:31;100318.00;;;10.05;100.00
55010;BME280;40903;51.638;7.528;2022-12-24T05:46:01;100314.00;;;9.98;100.00
55010;BME280;40903;51.638;7.528;2022-12-24T05:48:27;100318.94;;;9.96;100.00
55010;BME280;40903;51.638;7.528;2022-12-24T05:50:53;100330.44;;;9.93;100.00
55010;BME280;40903;51.638;7.528;2022-12-24T05:53:19;100327.34;;;9.99;100.00
55010;BME280;40903;51.638;7.528;2022-12-24T05:55:44;100329.03;;;9.95;100.00
55010;BME280;40903;51.638;7.528;2022-12-24T05:58:10;100330.31;;;10.03;100.00
55010;BME280;40903;51.638;7.528;2022-12-24T06:00:36;100338.31;;;10.13;100.00
55010;BME280;40903;51.638;7.528;2022-12-24T06:03:01;100337.53;;;10.12;100.00
55010;BME280;40903;51.638;7.528;2022-12-24T06:05:27;100338.03;;;10.14;100.00
55010;BME280;40903;51.638;7.528;2022-12-24T06:07:52;100345.19;;;10.10;100.00
55010;BME280;40903;51.638;7.528;2022-12-24T06:10:17;100350.13;;;10.08;100.00
55010;BME280;40903;51.638;7.528;2022-12-24T06:12:43;100342.75;;;10.09;100.00
55010;BME280;40903;51.638;7.528;2022-12-24T06:15:10;100341.44;;;10.06;100.00
55010;BME280;40903;51.638;7.528;2022-12-24T06:17:35;100339.81;;;10.05;100.00
55010;BME280;40903;51.638;7.528;2022-12-24T06:20:01;100345.97;;;10.11;100.00
55010;BME280;40903;51.638;7.528;2022-12-24T06:22:26;100342.59;;;10.19;100.00
55010;BME280;40903;51.638;7.528;2022-12-24T06:24:52;100345.97;;;10.11;100.00
55010;BME280;40903;51.638;7.528;2022-12-24T06:27:17;100353.50;;;10.19;100.00
55010;BME280;40903;51.638;7.528;2022-12-24T06:29:43;100354.28;;;10.19;100.00
55010;BME280;40903;51.638;7.528;2022-12-24T06:32:09;100357.94;;;10.15;100.00
55010;BME280;40903;51.638;7.528;2022-12-24T06:34:34;100362.31;;;10.11;100.00
55010;BME280;40903;51.638;7.528;2022-12-24T06:37:00;100365.97;;;10.06;100.00
55010;BME280;40903;51.638;7.528;2022-12-24T06:39:25;100373.59;;;10.04;100.00
55010;BME280;40903;51.638;7.528;2022-12-24T06:41:51;100370.22;;;10.12;100.00
55010;BME280;40903;51.638;7.528;2022-12-24T06:44:16;100377.88;;;10.10;100.00
55010;BME280;40903;51.638;7.528;2022-12-24T06:46:42;100381.84;;;10.18;100.00
55010;BME280;40903;51.638;7.528;2022-12-24T06:49:07;100378.09;;;10.14;100.00
55010;BME280;40903;51.638;7.528;2022-12-24T06:51:32;100380.28;;;10.12;100.00
55010;BME280;40903;51.638;7.528;2022-12-24T06:53:58;100388.19;;;10.13;100.00
55010;BME280;40903;51.638;7.528;2022-12-24T06:56:23;100402.63;;;10.14;100.00
55010;BME280;40903;51.638;7.528;2022-12-24T06:58:49;100390.63;;;10.15;100.00
55010;BME280;40903;51.638;7.528;2022-12-24T07:01:16;100400.75;;;10.28;100.00
55010;BME280;40903;51.638;7.528;2022-12-24T07:03:42;100396.34;;;10.32;100.00
55010;BME280;40903;51.638;7.528;2022-12-24T07:06:15;100400.25;;;10.26;100.00
55010;BME280;40903;51.638;7.528;2022-12-24T07:08:42;100411.16;;;10.26;100.00
55010;BME280;40903;51.638;7.528;2022-12-24T07:11:07;100416.09;;;10.24;100.00
55010;BME280;40903;51.638;7.528;2022-12-24T07:13:32;100417.19;;;10.23;100.00
55010;BME280;40903;51.638;7.528;2022-12-24T07:16:03;100406.78;;;10.25;100.00
55010;BME280;40903;51.638;7.528;2022-12-24T07:18:30;100416.69;;;10.21;100.00
55010;BME280;40903;51.638;7.528;2022-12-24T07:20:56;100416.59;;;10.26;100.00
55010;BME280;40903;51.638;7.528;2022-12-24T07:23:22;100415.94;;;10.34;100.00
55010;BME280;40903;51.638;7.528;2022-12-24T07:25:47;100420.56;;;10.33;100.00
55010;BME280;40903;51.638;7.528;2022-12-24T07:28:13;100419.25;;;10.31;100.00
55010;BME280;40903;51.638;7.528;2022-12-24T07:30:38;100420.94;;;10.27;100.00
55010;BME280;40903;51.638;7.528;2022-12-24T07:33:04;100427.22;;;10.27;100.00
55010;BME280;40903;51.638;7.528;2022-12-24T07:35:29;100435.91;;;10.29;100.00
55010;BME280;40903;51.638;7.528;2022-12-24T07:37:55;100434.50;;;10.32;100.00
55010;BME280;40903;51.638;7.528;2022-12-24T07:40:20;100434.56;;;10.27;100.00
55010;BME280;40903;51.638;7.528;2022-12-24T07:42:45;100432.94;;;10.26;100.00
55010;BME280;40903;51.638;7.528;2022-12-24T07:45:11;100439.72;;;10.28;100.00
55010;BME280;40903;51.638;7.528;2022-12-24T07:47:36;100450.25;;;10.35;100.00
55010;BME280;40903;51.638;7.528;2022-12-24T07:50:04;100448.47;;;10.44;100.00
55010;BME280;40903;51.638;7.528;2022-12-24T07:52:29;100446.16;;;10.37;100.00
55010;BME280;40903;51.638;7.528;2022-12-24T07:54:55;100443.19;;;10.34;100.00
55010;BME280;40903;51.638;7.528;2022-12-24T07:57:20;100443.63;;;10.41;100.00
55010;BME280;40903;51.638;7.528;2022-12-24T07:59:45;100444.59;;;10.50;100.00
55010;BME280;40903;51.638;7.528;2022-12-24T08:02:11;100452.09;;;10.39;100.00
55010;BME280;40903;51.638;7.528;2022-12-24T08:04:36;100447.22;;;10.36;100.00
55010;BME280;40903;51.638;7.528;2022-12-24T08:07:05;100456.31;;;10.32;100.00
55010;BME280;40903;51.638;7.528;2022-12-24T08:09:32;100453.78;;;10.35;100.00
55010;BME280;40903;51.638;7.528;2022-12-24T08:11:57;100458.72;;;10.33;100.00
55010;BME280;40903;51.638;7.528;2022-12-24T08:14:23;100464.63;;;10.40;100.00
55010;BME280;40903;51.638;7.528;2022-12-24T08:16:48;100476.91;;;10.38;100.00
55010;BME280;40903;51.638;7.528;2022-12-24T08:19:14;100485.78;;;10.30;100.00
55010;BME280;40903;51.638;7.528;2022-12-24T08:21:39;100484.06;;;10.34;100.00
55010;BME280;40903;51.638;7.528;2022-12-24T08:24:05;100490.16;;;10.26;100.00
55010;BME280;40903;51.638;7.528;2022-12-24T08:26:30;100514.50;;;10.22;100.00
55010;BME280;40903;51.638;7.528;2022-12-24T08:28:56;100504.84;;;10.30;100.00
55010;BME280;40903;51.638;7.528;2022-12-24T08:31:21;100505.38;;;10.32;100.00
55010;BME280;40903;51.638;7.528;2022-12-24T08:33:46;100508.00;;;10.37;100.00
55010;BME280;40903;51.638;7.528;2022-12-24T08:36:12;100505.28;;;10.37;100.00
55010;BME280;40903;51.638;7.528;2022-12-24T08:38:37;100516.94;;;10.42;100.00
55010;BME280;40903;51.638;7.528;2022-12-24T08:41:03;100518.31;;;10.40;100.00
55010;BME280;40903;51.638;7.528;2022-12-24T08:43:28;100512.06;;;10.39;100.00
55010;BME280;40903;51.638;7.528;2022-12-24T08:45:54;100527.84;;;10.42;100.00
55010;BME280;40903;51.638;7.528;2022-12-24T08:48:19;100527.84;;;10.42;100.00
55010;BME280;40903;51.638;7.528;2022-12-24T08:50:45;100532.97;;;10.44;100.00
55010;BME280;40903;51.638;7.528;2022-12-24T08:53:10;100543.59;;;10.45;100.00
55010;BME280;40903;51.638;7.528;2022-12-24T08:55:36;100534.63;;;10.45;100.00
55010;BME280;40903;51.638;7.528;2022-12-24T08:58:02;100534.41;;;10.41;100.00
55010;BME280;40903;51.638;7.528;2022-12-24T09:00:27;100536.16;;;10.51;100.00
55010;BME280;40903;51.638;7.528;2022-12-24T09:02:53;100548.09;;;10.55;100.00
55010;BME280;40903;51.638;7.528;2022-12-24T09:05:21;100561.09;;;10.63;100.00
55010;BME280;40903;51.638;7.528;2022-12-24T09:07:46;100554.28;;;10.60;100.00
55010;BME280;40903;51.638;7.528;2022-12-24T09:10:12;100563.72;;;10.68;100.00
55010;BME280;40903;51.638;7.528;2022-12-24T09:12:37;100557.03;;;10.60;100.00
55010;BME280;40903;51.638;7.528;2022-12-24T09:15:03;100569.38;;;10.53;100.00
55010;BME280;40903;51.638;7.528;2022-12-24T09:17:32;100575.88;;;10.57;100.00
55010;BME280;40903;51.638;7.528;2022-12-24T09:19:58;100579.41;;;10.57;100.00
55010;BME280;40903;51.638;7.528;2022-12-24T09:22:23;100581.84;;;10.59;100.00
55010;BME280;40903;51.638;7.528;2022-12-24T09:24:49;100578.81;;;10.60;100.00
55010;BME280;40903;51.638;7.528;2022-12-24T09:27:14;100589.97;;;10.64;100.00
55010;BME280;40903;51.638;7.528;2022-12-24T09:29:39;100595.34;;;10.69;100.00
55010;BME280;40903;51.638;7.528;2022-12-24T09:32:06;100593.78;;;10.81;100.00
55010;BME280;40903;51.638;7.528;2022-12-24T09:34:32;100601.59;;;10.88;100.00
55010;BME280;40903;51.638;7.528;2022-12-24T09:36:57;100615.78;;;10.90;100.00
55010;BME280;40903;51.638;7.528;2022-12-24T09:39:24;100622.03;;;10.90;100.00
55010;BME280;40903;51.638;7.528;2022-12-24T09:45:05;100628.59;;;10.89;100.00
55010;BME280;40903;51.638;7.528;2022-12-24T09:48:00;100631.47;;;10.98;100.00
55010;BME280;40903;51.638;7.528;2022-12-24T09:53:41;100639.06;;;11.01;100.00
55010;BME280;40903;51.638;7.528;2022-12-24T09:56:22;100634.81;;;10.95;100.00
55010;BME280;40903;51.638;7.528;2022-12-24T09:59:12;100642.13;;;10.99;100.00
55010;BME280;40903;51.638;7.528;2022-12-24T10:01:38;100644.25;;;11.02;100.00
55010;BME280;40903;51.638;7.528;2022-12-24T10:04:09;100645.63;;;11.00;100.00
55010;BME280;40903;51.638;7.528;2022-12-24T10:09:33;100653.53;;;11.01;100.00
55010;BME280;40903;51.638;7.528;2022-12-24T10:12:17;100660.31;;;11.04;100.00
55010;BME280;40903;51.638;7.528;2022-12-24T10:18:21;100654.06;;;11.03;100.00
55010;BME280;40903;51.638;7.528;2022-12-24T10:25:52;100666.34;;;11.01;100.00
55010;BME280;40903;51.638;7.528;2022-12-24T10:28:52;100671.91;;;11.14;100.00
55010;BME280;40903;51.638;7.528;2022-12-24T10:31:18;100665.34;;;11.15;100.00
55010;BME280;40903;51.638;7.528;2022-12-24T10:33:52;100666.97;;;11.16;100.00
55010;BME280;40903;51.638;7.528;2022-12-24T10:36:24;100665.53;;;11.19;100.00
55010;BME280;40903;51.638;7.528;2022-12-24T10:38:51;100668.28;;;11.19;100.00
55010;BME280;40903;51.638;7.528;2022-12-24T10:41:17;100674.41;;;11.29;100.00
55010;BME280;40903;51.638;7.528;2022-12-24T10:43:44;100679.38;;;11.27;100.00
55010;BME280;40903;51.638;7.528;2022-12-24T10:49:06;100669.94;;;11.20;100.00
55010;BME280;40903;51.638;7.528;2022-12-24T10:51:39;100665.25;;;11.20;100.00
55010;BME280;40903;51.638;7.528;2022-12-24T10:54:12;100665.53;;;11.37;100.00
55010;BME280;40903;51.638;7.528;2022-12-24T10:56:41;100663.19;;;11.68;100.00
55010;BME280;40903;51.638;7.528;2022-12-24T10:59:31;100661.72;;;11.88;100.00
55010;BME280;40903;51.638;7.528;2022-12-24T11:02:00;100657.81;;;11.94;100.00
55010;BME280;40903;51.638;7.528;2022-12-24T11:04:29;100658.81;;;11.98;100.00
55010;BME280;40903;51.638;7.528;2022-12-24T11:07:04;100652.00;;;11.96;100.00
55010;BME280;40903;51.638;7.528;2022-12-24T11:09:39;100648.28;;;11.92;100.00
55010;BME280;40903;51.638;7.528;2022-12-24T11:12:16;100655.22;;;11.84;100.00
55010;BME280;40903;51.638;7.528;2022-12-24T11:14:45;100642.91;;;11.87;100.00
55010;BME280;40903;51.638;7.528;2022-12-24T11:17:21;100647.94;;;11.80;100.00
55010;BME280;40903;51.638;7.528;2022-12-24T11:19:48;100650.38;;;11.81;100.00
55010;BME280;40903;51.638;7.528;2022-12-24T11:22:21;100649.16;;;11.87;100.00
55010;BME280;40903;51.638;7.528;2022-12-24T11:25:00;100650.28;;;11.86;100.00
55010;BME280;40903;51.638;7.528;2022-12-24T11:27:39;100644.91;;;11.81;100.00
55010;BME280;40903;51.638;7.528;2022-12-24T11:30:16;100656.22;;;11.75;100.00
55010;BME280;40903;51.638;7.528;2022-12-24T11:32:45;100655.00;;;11.68;100.00
55010;BME280;40903;51.638;7.528;2022-12-24T11:35:22;100642.50;;;11.62;100.00
55010;BME280;40903;51.638;7.528;2022-12-24T11:37:50;100645.56;;;11.60;100.00
55010;BME280;40903;51.638;7.528;2022-12-24T11:40:39;100646.06;;;11.62;100.00
55010;BME280;40903;51.638;7.528;2022-12-24T11:43:19;100643.09;;;11.59;100.00
55010;BME280;40903;51.638;7.528;2022-12-24T11:45:49;100641.22;;;11.54;100.00
55010;BME280;40903;51.638;7.528;2022-12-24T11:48:42;100649.97;;;11.56;100.00
55010;BME280;40903;51.638;7.528;2022-12-24T11:51:27;100651.22;;;11.64;100.00
55010;BME280;40903;51.638;7.528;2022-12-24T11:58:56;100650.25;;;11.73;100.00
55010;BME280;40903;51.638;7.528;2022-12-24T12:01:29;100657.13;;;11.71;100.00
55010;BME280;40903;51.638;7.528;2022-12-24T12:04:09;100648.63;;;11.72;100.00
55010;BME280;40903;51.638;7.528;2022-12-24T12:06:39;100658.84;;;11.67;100.00
55010;BME280;40903;51.638;7.528;2022-12-24T12:09:12;100659.72;;;11.62;100.00
55010;BME280;40903;51.638;7.528;2022-12-24T12:11:42;100653.94;;;11.64;100.00
55010;BME280;40903;51.638;7.528;2022-12-24T12:14:19;100653.88;;;11.69;100.00
55010;BME280;40903;51.638;7.528;2022-12-24T12:19:45;100665.31;;;11.71;100.00
55010;BME280;40903;51.638;7.528;2022-12-24T12:22:44;100684.44;;;11.71;100.00
55010;BME280;40903;51.638;7.528;2022-12-24T12:36:32;100683.81;;;11.55;100.00
55010;BME280;40903;51.638;7.528;2022-12-24T12:39:00;100685.38;;;11.43;100.00
55010;BME280;40903;51.638;7.528;2022-12-24T12:41:35;100701.84;;;11.38;100.00
55010;BME280;40903;51.638;7.528;2022-12-24T12:55:26;100713.81;;;11.42;100.00
55010;BME280;40903;51.638;7.528;2022-12-24T12:58:12;100717.13;;;11.39;100.00
55010;BME280;40903;51.638;7.528;2022-12-24T13:00:41;100714.78;;;11.32;100.00
55010;BME280;40903;51.638;7.528;2022-12-24T13:06:12;100718.09;;;11.29;100.00
55010;BME280;40903;51.638;7.528;2022-12-24T13:17:37;100728.34;;;11.56;100.00
55010;BME280;40903;51.638;7.528;2022-12-24T13:20:32;100729.72;;;11.58;99.21
55010;BME280;40903;51.638;7.528;2022-12-24T13:23:09;100737.59;;;11.60;100.00
55010;BME280;40903;51.638;7.528;2022-12-24T13:25:39;100734.34;;;11.58;98.97
55010;BME280;40903;51.638;7.528;2022-12-24T13:30:50;100750.72;;;11.58;96.09
55010;BME280;40903;51.638;7.528;2022-12-24T13:36:11;100753.13;;;11.41;98.75
55010;BME280;40903;51.638;7.528;2022-12-24T13:49:17;100770.91;;;11.38;97.44
55010;BME280;40903;51.638;7.528;2022-12-24T13:51:43;100776.38;;;11.38;98.03
55010;BME280;40903;51.638;7.528;2022-12-24T13:54:11;100780.53;;;11.36;98.54
55010;BME280;40903;51.638;7.528;2022-12-24T13:56:37;100775.94;;;11.31;99.33
55010;BME280;40903;51.638;7.528;2022-12-24T13:59:35;100790.38;;;11.32;100.00
55010;BME280;40903;51.638;7.528;2022-12-24T14:01:59;100789.22;;;11.38;100.00
55010;BME280;40903;51.638;7.528;2022-12-24T14:04:31;100787.25;;;11.43;100.00
55010;BME280;40903;51.638;7.528;2022-12-24T14:07:00;100788.56;;;11.46;98.86
55010;BME280;40903;51.638;7.528;2022-12-24T14:09:27;100777.25;;;11.52;97.06
55010;BME280;40903;51.638;7.528;2022-12-24T14:14:36;100788.03;;;11.44;96.89
55010;BME280;40903;51.638;7.528;2022-12-24T14:17:12;100787.09;;;11.35;96.79
55010;BME280;40903;51.638;7.528;2022-12-24T14:19:48;100783.81;;;11.33;97.30
55010;BME280;40903;51.638;7.528;2022-12-24T14:22:32;100781.16;;;11.28;95.91
55010;BME280;40903;51.638;7.528;2022-12-24T14:25:01;100781.50;;;11.21;97.38
55010;BME280;40903;51.638;7.528;2022-12-24T14:27:42;100793.63;;;11.15;98.15
55010;BME280;40903;51.638;7.528;2022-12-24T14:30:17;100800.56;;;11.03;98.42